createdAt,value
2019-05-29T00:00:02.889Z,100582.75
2019-05-29T00:02:31.373Z,100591.87
2019-05-29T00:04:59.874Z,100589.39
2019-05-29T00:07:28.324Z,100601.79
2019-05-29T00:09:56.778Z,100608.73
2019-05-29T00:12:25.209Z,100604.61
2019-05-29T00:14:53.724Z,100601.20
2019-05-29T00:17:22.201Z,100603.13
2019-05-29T00:19:50.628Z,100605.25
2019-05-29T00:22:19.078Z,100605.63
2019-05-29T00:24:47.567Z,100613.92
2019-05-29T00:27:16.030Z,100616.95
2019-05-29T00:29:44.446Z,100620.03
2019-05-29T00:32:13.511Z,100622.45
2019-05-29T00:34:43.356Z,100621.72
2019-05-29T00:37:12.507Z,100624.97
2019-05-29T00:39:41.261Z,100628.11
2019-05-29T00:42:11.002Z,100631.47
2019-05-29T00:44:40.378Z,100640.40
2019-05-29T00:47:11.567Z,100641.38
2019-05-29T00:49:40.083Z,100638.11
2019-05-29T00:54:57.526Z,100644.25
2019-05-29T00:57:25.926Z,100649.92
2019-05-29T00:59:57.333Z,100651.84
2019-05-29T01:02:25.763Z,100652.77
2019-05-29T01:04:54.178Z,100649.91
2019-05-29T01:07:22.616Z,100651.02
2019-05-29T01:09:51.034Z,100660.59
2019-05-29T01:12:19.473Z,100667.16
2019-05-29T01:14:50.566Z,100671.06
2019-05-29T01:17:19.794Z,100669.30
2019-05-29T01:19:48.345Z,100675.80
2019-05-29T01:22:16.774Z,100673.28
2019-05-29T01:24:45.186Z,100679.89
2019-05-29T01:27:15.085Z,100680.59
2019-05-29T01:29:43.718Z,100677.92
2019-05-29T01:32:15.505Z,100681.53
2019-05-29T01:34:43.981Z,100684.44
2019-05-29T01:37:12.438Z,100688.08
2019-05-29T01:39:41.249Z,100685.80
2019-05-29T01:42:09.675Z,100687.56
2019-05-29T01:44:38.208Z,100688.29
2019-05-29T01:47:06.623Z,100694.47
2019-05-29T01:49:35.233Z,100699.96
2019-05-29T01:52:03.586Z,100699.13
2019-05-29T01:54:32.028Z,100709.39
2019-05-29T01:57:00.516Z,100703.34
2019-05-29T01:59:29.005Z,100705.35
2019-05-29T02:01:57.422Z,100704.94
2019-05-29T02:04:25.859Z,100708.87
2019-05-29T02:06:54.288Z,100709.55
2019-05-29T02:09:22.717Z,100715.44
2019-05-29T02:11:51.140Z,100717.36
2019-05-29T02:14:20.835Z,100716.57
2019-05-29T02:16:49.182Z,100728.46
2019-05-29T02:19:17.807Z,100726.53
2019-05-29T02:21:47.724Z,100729.42
2019-05-29T02:24:17.016Z,100729.39
2019-05-29T02:26:45.509Z,100729.48
2019-05-29T02:29:13.949Z,100735.47
2019-05-29T02:31:42.479Z,100741.19
2019-05-29T02:34:10.877Z,100745.37
2019-05-29T02:36:39.340Z,100741.14
2019-05-29T02:39:08.252Z,100747.14
2019-05-29T02:41:38.708Z,100743.55
2019-05-29T02:44:06.859Z,100747.23
2019-05-29T02:46:35.315Z,100747.17
2019-05-29T02:49:03.752Z,100751.02
2019-05-29T02:51:32.173Z,100753.67
2019-05-29T02:54:00.635Z,100754.78
2019-05-29T02:56:29.609Z,100755.17
2019-05-29T02:58:59.253Z,100762.67
2019-05-29T03:01:28.298Z,100759.43
2019-05-29T03:03:58.034Z,100762.58
2019-05-29T03:06:30.270Z,100766.81
2019-05-29T03:08:58.792Z,100767.30
2019-05-29T03:11:29.185Z,100764.69
2019-05-29T03:13:57.449Z,100770.88
2019-05-29T03:16:26.697Z,100777.05
2019-05-29T03:18:56.043Z,100777.53
2019-05-29T03:21:26.099Z,100780.36
2019-05-29T03:23:54.611Z,100784.33
2019-05-29T03:26:25.240Z,100779.23
2019-05-29T03:28:53.251Z,100788.00
2019-05-29T03:31:21.744Z,100791.97
2019-05-29T03:33:51.179Z,100786.31
2019-05-29T03:36:20.011Z,100789.80
2019-05-29T03:38:48.512Z,100799.05
2019-05-29T03:41:16.898Z,100802.05
2019-05-29T03:43:45.300Z,100808.86
2019-05-29T03:46:30.205Z,100804.91
2019-05-29T03:48:44.327Z,100809.08
2019-05-29T03:51:12.858Z,100814.25
2019-05-29T03:53:41.288Z,100822.56
2019-05-29T03:56:09.714Z,100820.98
2019-05-29T03:58:38.140Z,100824.02
2019-05-29T04:01:06.614Z,100822.00
2019-05-29T04:03:36.081Z,100820.77
2019-05-29T04:06:07.263Z,100834.38
2019-05-29T04:08:37.617Z,100834.50
2019-05-29T04:11:05.965Z,100832.97
2019-05-29T04:13:36.003Z,100844.58
2019-05-29T04:16:04.693Z,100839.58
2019-05-29T04:18:35.832Z,100849.14
2019-05-29T04:21:04.603Z,100840.16
2019-05-29T04:23:36.282Z,100849.42
2019-05-29T04:26:05.006Z,100855.97
2019-05-29T04:28:34.850Z,100857.30
2019-05-29T04:31:03.803Z,100863.13
2019-05-29T04:33:34.930Z,100864.75
2019-05-29T04:36:06.987Z,100876.56
2019-05-29T04:38:36.212Z,100880.61
2019-05-29T04:41:05.691Z,100888.53
2019-05-29T04:43:35.424Z,100890.85
2019-05-29T04:46:04.461Z,100893.95
2019-05-29T04:48:34.063Z,100889.04
2019-05-29T04:51:05.462Z,100895.06
2019-05-29T04:53:33.614Z,100898.55
2019-05-29T04:56:02.790Z,100897.86
2019-05-29T04:58:31.246Z,100902.34
2019-05-29T05:00:59.801Z,100904.98
2019-05-29T05:03:30.992Z,100914.22
2019-05-29T05:05:59.623Z,100918.94
2019-05-29T05:08:29.154Z,100919.38
2019-05-29T05:10:57.904Z,100919.73
2019-05-29T05:13:29.380Z,100924.68
2019-05-29T05:16:01.728Z,100922.34
2019-05-29T05:18:30.173Z,100926.09
2019-05-29T05:20:59.811Z,100933.28
2019-05-29T05:23:28.281Z,100928.19
2019-05-29T05:25:56.841Z,100932.88
2019-05-29T05:28:25.424Z,100929.64
2019-05-29T05:30:55.312Z,100937.07
2019-05-29T05:33:23.793Z,100944.91
2019-05-29T05:35:52.220Z,100949.48
2019-05-29T05:38:20.676Z,100950.29
2019-05-29T05:40:50.735Z,100948.98
2019-05-29T05:43:24.020Z,100955.45
2019-05-29T05:45:49.360Z,100960.86
2019-05-29T05:48:17.920Z,100962.48
2019-05-29T05:50:46.394Z,100969.81
2019-05-29T05:53:14.844Z,100968.29
2019-05-29T05:55:43.266Z,100973.34
2019-05-29T05:58:11.720Z,100973.19
2019-05-29T06:00:40.188Z,100977.66
2019-05-29T06:03:08.593Z,100975.30
2019-05-29T06:05:38.232Z,100980.20
2019-05-29T06:08:06.801Z,100982.70
2019-05-29T06:10:38.102Z,100977.67
2019-05-29T06:13:06.723Z,100980.98
2019-05-29T06:15:36.410Z,100978.30
2019-05-29T06:18:20.035Z,100988.01
2019-05-29T06:20:35.142Z,100985.57
2019-05-29T06:23:03.662Z,100983.80
2019-05-29T06:25:33.905Z,100981.66
2019-05-29T06:28:02.261Z,100986.37
2019-05-29T06:30:30.696Z,100989.50
2019-05-29T06:32:59.099Z,100996.52
2019-05-29T06:35:27.633Z,101001.27
2019-05-29T06:37:56.062Z,101005.20
2019-05-29T06:40:40.162Z,101008.83
2019-05-29T06:43:23.756Z,101018.95
2019-05-29T06:45:52.769Z,101022.59
2019-05-29T06:48:41.286Z,101024.19
2019-05-29T06:50:57.580Z,101029.91
2019-05-29T06:53:27.067Z,101034.58
2019-05-29T06:55:56.850Z,101032.63
2019-05-29T06:58:25.737Z,101039.91
2019-05-29T07:00:54.169Z,101036.83
2019-05-29T07:03:22.735Z,101039.53
2019-05-29T07:05:52.862Z,101049.38
2019-05-29T07:08:37.674Z,101048.18
2019-05-29T07:10:53.205Z,101049.41
2019-05-29T07:13:21.724Z,101048.15
2019-05-29T07:15:50.114Z,101052.89
2019-05-29T07:18:18.655Z,101051.09
2019-05-29T07:20:47.119Z,101049.91
2019-05-29T07:23:15.576Z,101050.66
2019-05-29T07:25:45.452Z,101056.31
2019-05-29T07:28:14.256Z,101049.47
2019-05-29T07:30:48.359Z,101045.70
2019-05-29T07:33:13.041Z,101052.69
2019-05-29T07:35:43.593Z,101051.33
2019-05-29T07:38:12.105Z,101054.91
2019-05-29T07:40:42.420Z,101053.53
2019-05-29T07:43:11.216Z,101064.35
2019-05-29T07:45:40.586Z,101070.62
2019-05-29T07:48:09.382Z,101082.38
2019-05-29T07:50:40.082Z,101081.48
2019-05-29T07:53:08.055Z,101082.92
2019-05-29T07:55:36.464Z,101081.29
2019-05-29T07:58:04.874Z,101084.11
2019-05-29T08:00:35.697Z,101085.45
2019-05-29T08:03:03.422Z,101080.77
2019-05-29T08:05:31.864Z,101075.80
2019-05-29T08:08:00.281Z,101078.18
2019-05-29T08:10:28.702Z,101081.59
2019-05-29T08:12:57.232Z,101081.42
2019-05-29T08:15:25.667Z,101089.25
2019-05-29T08:17:54.974Z,101090.42
2019-05-29T08:20:23.414Z,101090.98
2019-05-29T08:22:51.910Z,101089.47
2019-05-29T08:25:20.375Z,101099.85
2019-05-29T08:27:52.219Z,101098.95
2019-05-29T08:30:19.379Z,101103.94
2019-05-29T08:32:49.110Z,101104.15
2019-05-29T08:35:17.891Z,101106.20
2019-05-29T08:37:47.014Z,101105.70
2019-05-29T08:40:15.852Z,101109.34
2019-05-29T08:42:45.225Z,101112.02
2019-05-29T08:45:15.805Z,101117.53
2019-05-29T08:47:45.855Z,101116.59
2019-05-29T08:50:18.951Z,101113.25
2019-05-29T08:52:47.979Z,101119.05
2019-05-29T08:55:16.910Z,101122.04
2019-05-29T08:57:46.338Z,101120.72
2019-05-29T09:00:16.841Z,101119.11
2019-05-29T09:02:46.501Z,101125.02
2019-05-29T09:05:18.404Z,101118.80
2019-05-29T09:07:48.356Z,101120.00
2019-05-29T09:10:18.018Z,101117.43
2019-05-29T09:12:54.894Z,101127.24
2019-05-29T09:15:21.342Z,101127.24
2019-05-29T09:17:48.482Z,101129.59
2019-05-29T09:20:32.132Z,101132.91
2019-05-29T09:22:47.339Z,101133.25
2019-05-29T09:25:18.976Z,101126.45
2019-05-29T09:27:49.228Z,101130.06
2019-05-29T09:30:19.686Z,101130.86
2019-05-29T09:32:50.895Z,101140.75
2019-05-29T09:35:22.041Z,101143.38
2019-05-29T09:37:51.547Z,101151.30
2019-05-29T09:40:21.101Z,101138.53
2019-05-29T09:42:49.684Z,101142.03
2019-05-29T09:45:19.526Z,101134.24
2019-05-29T09:47:48.195Z,101134.75
2019-05-29T09:50:18.681Z,101139.34
2019-05-29T09:52:50.481Z,101143.52
2019-05-29T09:55:20.585Z,101143.42
2019-05-29T09:57:49.016Z,101143.83
2019-05-29T10:00:17.967Z,101143.69
2019-05-29T10:02:47.236Z,101142.39
2019-05-29T10:05:15.742Z,101147.91
2019-05-29T10:07:44.181Z,101141.05
2019-05-29T10:10:15.865Z,101145.23
2019-05-29T10:12:44.313Z,101150.95
2019-05-29T10:15:14.945Z,101145.73
2019-05-29T10:17:43.426Z,101143.22
2019-05-29T10:20:14.190Z,101141.47
2019-05-29T10:22:42.669Z,101155.11
2019-05-29T10:25:12.761Z,101153.95
2019-05-29T10:27:41.218Z,101152.77
2019-05-29T10:30:10.119Z,101147.78
2019-05-29T10:32:39.052Z,101140.88
2019-05-29T10:35:08.073Z,101149.86
2019-05-29T10:37:36.505Z,101144.66
2019-05-29T10:40:10.013Z,101144.48
2019-05-29T10:42:38.512Z,101144.63
2019-05-29T10:45:11.628Z,101145.14
2019-05-29T10:47:40.059Z,101142.19
2019-05-29T10:50:10.512Z,101139.19
2019-05-29T10:52:39.070Z,101143.44
2019-05-29T10:55:08.545Z,101145.08
2019-05-29T10:57:37.033Z,101141.73
2019-05-29T11:00:08.492Z,101145.64
2019-05-29T11:02:38.421Z,101149.89
2019-05-29T11:05:06.906Z,101142.43
2019-05-29T11:07:39.978Z,101145.47
2019-05-29T11:10:13.340Z,101141.92
2019-05-29T11:12:40.035Z,101145.84
2019-05-29T11:15:20.866Z,101141.42
2019-05-29T11:17:40.800Z,101148.08
2019-05-29T11:20:26.253Z,101142.11
2019-05-29T11:22:47.559Z,101149.14
2019-05-29T11:25:22.384Z,101147.38
2019-05-29T11:27:46.612Z,101142.97
2019-05-29T11:30:15.633Z,101150.81
2019-05-29T11:32:47.295Z,101148.61
2019-05-29T11:35:16.085Z,101145.96
2019-05-29T11:37:44.510Z,101148.16
2019-05-29T11:40:13.348Z,101143.14
2019-05-29T11:42:41.772Z,101137.56
2019-05-29T11:45:11.536Z,101141.21
2019-05-29T11:47:39.978Z,101143.27
2019-05-29T11:50:19.523Z,101152.37
2019-05-29T11:52:45.040Z,101145.70
2019-05-29T11:55:16.844Z,101146.61
2019-05-29T11:57:47.435Z,101146.75
2019-05-29T12:00:20.195Z,101145.20
2019-05-29T12:02:49.133Z,101144.44
2019-05-29T12:05:17.995Z,101140.27
2019-05-29T12:07:46.429Z,101147.14
2019-05-29T12:10:15.576Z,101141.58
2019-05-29T12:12:44.027Z,101141.06
2019-05-29T12:15:17.194Z,101146.72
2019-05-29T12:17:44.551Z,101140.81
2019-05-29T12:20:27.183Z,101135.95
2019-05-29T12:23:07.043Z,101134.30
2019-05-29T12:25:14.151Z,101135.70
2019-05-29T12:27:42.585Z,101134.92
2019-05-29T12:30:12.547Z,101139.72
2019-05-29T12:32:41.003Z,101135.64
2019-05-29T12:35:09.966Z,101135.35
2019-05-29T12:37:38.476Z,101139.92
2019-05-29T12:40:08.613Z,101134.43
2019-05-29T12:42:37.006Z,101134.25
2019-05-29T12:45:09.430Z,101126.53
2019-05-29T12:47:37.932Z,101134.52
2019-05-29T12:50:14.477Z,101136.15
2019-05-29T12:52:42.912Z,101135.29
2019-05-29T12:55:13.253Z,101131.42
2019-05-29T12:57:42.466Z,101126.56
2019-05-29T13:00:12.752Z,101123.46
2019-05-29T13:02:43.528Z,101125.94
2019-05-29T13:05:20.226Z,101129.81
2019-05-29T13:07:45.793Z,101129.02
2019-05-29T13:10:29.372Z,101130.41
2019-05-29T13:12:45.558Z,101127.60
2019-05-29T13:15:16.416Z,101124.48
2019-05-29T13:17:45.579Z,101133.02
2019-05-29T13:20:21.715Z,101125.75
2019-05-29T13:22:47.416Z,101125.63
2019-05-29T13:25:16.229Z,101124.45
2019-05-29T13:27:44.639Z,101116.06
2019-05-29T13:30:14.389Z,101120.29
2019-05-29T13:32:43.251Z,101117.39
2019-05-29T13:35:12.071Z,101119.94
2019-05-29T13:37:40.494Z,101107.19
2019-05-29T13:40:11.251Z,101111.35
2019-05-29T13:42:39.907Z,101104.76
2019-05-29T13:45:17.941Z,101103.27
2019-05-29T13:47:40.156Z,101106.50
2019-05-29T13:50:12.135Z,101107.67
2019-05-29T13:52:38.728Z,101103.27
2019-05-29T13:55:07.946Z,101105.85
2019-05-29T13:57:39.573Z,101110.47
2019-05-29T14:00:30.292Z,101110.53
2019-05-29T14:02:39.524Z,101100.53
2019-05-29T14:05:08.804Z,101103.66
2019-05-29T14:07:38.191Z,101107.08
2019-05-29T14:10:09.707Z,101100.00
2019-05-29T14:12:41.366Z,101099.33
2019-05-29T14:15:12.426Z,101097.39
2019-05-29T14:17:42.565Z,101104.45
2019-05-29T14:20:11.369Z,101107.58
2019-05-29T14:22:39.784Z,101104.84
2019-05-29T14:25:11.536Z,101099.80
2019-05-29T14:27:41.637Z,101096.29
2019-05-29T14:30:14.021Z,101098.63
2019-05-29T14:32:43.703Z,101088.94
2019-05-29T14:35:13.388Z,101092.11
2019-05-29T14:37:41.940Z,101093.24
2019-05-29T14:40:12.064Z,101099.88
2019-05-29T14:42:42.326Z,101098.78
2019-05-29T14:45:12.586Z,101092.88
2019-05-29T14:47:41.075Z,101102.89
2019-05-29T14:50:13.239Z,101101.37
2019-05-29T14:52:41.708Z,101113.06
2019-05-29T14:55:16.155Z,101103.47
2019-05-29T14:57:40.585Z,101108.48
2019-05-29T15:00:22.843Z,101107.13
2019-05-29T15:02:43.212Z,101103.49
2019-05-29T15:05:12.865Z,101096.69
2019-05-29T15:07:42.343Z,101100.49
2019-05-29T15:10:26.258Z,101097.80
2019-05-29T15:12:42.975Z,101095.59
2019-05-29T15:15:17.857Z,101094.44
2019-05-29T15:17:42.521Z,101092.40
2019-05-29T15:20:12.570Z,101102.23
2019-05-29T15:22:41.438Z,101095.58
2019-05-29T15:25:21.824Z,101099.50
2019-05-29T15:27:43.772Z,101091.37
2019-05-29T15:30:22.088Z,101092.31
2019-05-29T15:32:45.383Z,101095.86
2019-05-29T15:35:18.454Z,101096.16
2019-05-29T15:37:45.258Z,101094.08
2019-05-29T15:40:14.983Z,101096.47
2019-05-29T15:42:43.490Z,101099.38
2019-05-29T15:45:14.139Z,101096.33
2019-05-29T15:47:43.401Z,101095.08
2019-05-29T15:50:13.604Z,101097.92
2019-05-29T15:52:42.996Z,101092.77
2019-05-29T15:55:29.492Z,101100.45
2019-05-29T15:57:43.343Z,101100.61
2019-05-29T16:00:13.766Z,101088.55
2019-05-29T16:02:42.273Z,101091.11
2019-05-29T16:05:15.416Z,101089.58
2019-05-29T16:07:43.950Z,101091.71
2019-05-29T16:10:16.884Z,101095.64
2019-05-29T16:12:44.692Z,101090.66
2019-05-29T16:15:13.495Z,101090.66
2019-05-29T16:17:42.002Z,101090.53
2019-05-29T16:20:12.314Z,101087.30
2019-05-29T16:22:40.984Z,101085.12
2019-05-29T16:25:10.794Z,101087.25
2019-05-29T16:27:39.451Z,101086.20
2019-05-29T16:30:13.692Z,101089.25
2019-05-29T16:32:42.171Z,101087.14
2019-05-29T16:35:11.189Z,101085.35
2019-05-29T16:37:39.547Z,101082.72
2019-05-29T16:40:14.148Z,101084.58
2019-05-29T16:42:42.784Z,101082.24
2019-05-29T16:45:12.586Z,101088.98
2019-05-29T16:47:40.996Z,101083.53
2019-05-29T16:50:12.827Z,101093.40
2019-05-29T16:52:41.464Z,101089.60
2019-05-29T16:55:10.945Z,101088.04
2019-05-29T16:57:39.396Z,101088.41
2019-05-29T17:00:13.663Z,101089.59
2019-05-29T17:02:45.162Z,101092.73
2019-05-29T17:05:13.978Z,101086.64
2019-05-29T17:07:42.350Z,101084.02
2019-05-29T17:10:11.105Z,101077.55
2019-05-29T17:12:39.528Z,101080.82
2019-05-29T17:15:10.295Z,101077.63
2019-05-29T17:17:37.983Z,101081.49
2019-05-29T17:20:08.253Z,101077.19
2019-05-29T17:22:36.800Z,101079.26
2019-05-29T17:25:07.197Z,101072.43
2019-05-29T17:27:36.596Z,101067.27
2019-05-29T17:30:09.533Z,101064.69
2019-05-29T17:32:37.968Z,101061.45
2019-05-29T17:35:08.594Z,101061.67
2019-05-29T17:37:37.352Z,101066.33
2019-05-29T17:40:07.919Z,101061.19
2019-05-29T17:42:36.389Z,101065.61
2019-05-29T17:45:07.813Z,101061.30
2019-05-29T17:47:36.358Z,101065.61
2019-05-29T17:50:11.353Z,101066.50
2019-05-29T17:52:39.887Z,101078.39
2019-05-29T17:55:09.496Z,101072.97
2019-05-29T17:57:37.902Z,101065.83
2019-05-29T18:00:13.574Z,101064.27
2019-05-29T18:02:51.987Z,101061.47
2019-05-29T18:05:13.525Z,101061.70
2019-05-29T18:07:42.042Z,101062.19
2019-05-29T18:10:11.899Z,101063.20
2019-05-29T18:12:40.431Z,101069.70
2019-05-29T18:15:10.296Z,101066.09
2019-05-29T18:17:38.822Z,101069.66
2019-05-29T18:20:08.129Z,101063.42
2019-05-29T18:22:36.549Z,101065.88
2019-05-29T18:25:09.001Z,101061.91
2019-05-29T18:27:37.442Z,101066.24
2019-05-29T18:30:08.449Z,101061.67
2019-05-29T18:32:37.500Z,101063.55
2019-05-29T18:35:07.816Z,101055.38
2019-05-29T18:37:36.360Z,101067.89
2019-05-29T18:40:12.297Z,101061.52
2019-05-29T18:42:38.382Z,101067.77
2019-05-29T18:45:19.613Z,101069.16
2019-05-29T18:47:39.574Z,101075.45
2019-05-29T18:50:10.483Z,101074.52
2019-05-29T18:52:39.973Z,101078.85
2019-05-29T18:55:08.974Z,101075.41
2019-05-29T18:57:37.427Z,101075.68
2019-05-29T19:00:07.744Z,101076.39
2019-05-29T19:02:36.177Z,101077.46
2019-05-29T19:05:08.058Z,101082.73
2019-05-29T19:07:36.450Z,101083.23
2019-05-29T19:10:07.306Z,101084.57
2019-05-29T19:12:35.075Z,101088.91
2019-05-29T19:15:04.805Z,101088.09
2019-05-29T19:17:33.203Z,101092.84
2019-05-29T19:20:03.417Z,101089.00
2019-05-29T19:22:32.695Z,101098.59
2019-05-29T19:25:01.375Z,101098.31
2019-05-29T19:27:37.450Z,101104.86
2019-05-29T19:30:00.024Z,101105.73
2019-05-29T19:32:29.310Z,101105.41
2019-05-29T19:34:57.943Z,101102.41
2019-05-29T19:37:26.377Z,101109.13
2019-05-29T19:39:54.851Z,101107.31
2019-05-29T19:42:24.053Z,101101.64
2019-05-29T19:44:52.648Z,101102.14
2019-05-29T19:47:21.155Z,101099.83
2019-05-29T19:49:49.651Z,101109.69
2019-05-29T19:52:18.171Z,101108.17
2019-05-29T19:54:46.663Z,101104.50
2019-05-29T19:57:15.122Z,101103.30
2019-05-29T19:59:43.739Z,101105.67
2019-05-29T20:02:12.207Z,101107.53
2019-05-29T20:04:42.170Z,101112.55
2019-05-29T20:07:10.618Z,101118.41
2019-05-29T20:09:39.098Z,101110.54
2019-05-29T20:12:07.601Z,101112.88
2019-05-29T20:14:40.898Z,101116.59
2019-05-29T20:17:09.078Z,101124.63
2019-05-29T20:19:40.780Z,101128.64
2019-05-29T20:22:07.748Z,101124.59
2019-05-29T20:24:36.910Z,101124.94
2019-05-29T20:27:06.747Z,101137.16
2019-05-29T20:29:36.369Z,101133.66
2019-05-29T20:32:05.057Z,101137.00
2019-05-29T20:34:34.645Z,101134.31
2019-05-29T20:37:03.204Z,101135.50
2019-05-29T20:39:32.856Z,101134.31
2019-05-29T20:42:01.518Z,101134.31
2019-05-29T20:44:32.620Z,101131.45
2019-05-29T20:47:00.183Z,101133.82
2019-05-29T20:49:28.666Z,101130.95
2019-05-29T20:51:57.175Z,101130.64
2019-05-29T20:54:27.646Z,101130.45
2019-05-29T20:56:59.424Z,101128.27
2019-05-29T20:59:29.525Z,101138.98
2019-05-29T21:02:00.367Z,101135.80
2019-05-29T21:04:28.434Z,101133.97
2019-05-29T21:06:56.965Z,101136.95
2019-05-29T21:09:25.507Z,101138.95
2019-05-29T21:11:55.433Z,101139.12
2019-05-29T21:14:23.917Z,101135.59
2019-05-29T21:16:52.330Z,101138.95
2019-05-29T21:19:20.786Z,101135.58
2019-05-29T21:21:49.203Z,101139.44
2019-05-29T21:24:17.623Z,101135.92
2019-05-29T21:26:46.041Z,101133.58
2019-05-29T21:29:14.459Z,101133.53
2019-05-29T21:31:43.715Z,101128.37
2019-05-29T21:34:13.762Z,101130.69
2019-05-29T21:36:42.429Z,101129.49
2019-05-29T21:39:10.974Z,101132.36
2019-05-29T21:41:40.425Z,101140.12
2019-05-29T21:44:09.163Z,101140.28
2019-05-29T21:46:38.826Z,101135.23
2019-05-29T21:49:07.557Z,101134.75
2019-05-29T21:51:37.292Z,101141.74
2019-05-29T21:54:06.062Z,101137.66
2019-05-29T21:56:37.443Z,101129.81
2019-05-29T21:59:06.226Z,101138.62
2019-05-29T22:01:35.080Z,101129.77
2019-05-29T22:04:03.626Z,101134.79
2019-05-29T22:06:33.708Z,101129.92
2019-05-29T22:09:02.198Z,101129.41
2019-05-29T22:11:30.679Z,101129.88
2019-05-29T22:13:59.143Z,101124.20
2019-05-29T22:16:27.723Z,101121.52
2019-05-29T22:18:57.029Z,101121.52
2019-05-29T22:21:26.415Z,101122.70
2019-05-29T22:23:57.103Z,101121.84
2019-05-29T22:26:27.794Z,101115.66
2019-05-29T22:28:58.584Z,101118.02
2019-05-29T22:31:26.541Z,101118.02
2019-05-29T22:33:59.607Z,101114.86
2019-05-29T22:36:28.091Z,101116.99
2019-05-29T22:38:57.474Z,101119.16
2019-05-29T22:41:25.984Z,101118.11
2019-05-29T22:43:55.982Z,101110.44
2019-05-29T22:46:24.492Z,101109.25
2019-05-29T22:48:53.690Z,101108.55
2019-05-29T22:51:23.707Z,101106.53
2019-05-29T22:53:52.767Z,101101.52
2019-05-29T22:56:22.489Z,101095.70
2019-05-29T22:58:52.033Z,101098.35
2019-05-29T23:01:20.579Z,101104.69
2019-05-29T23:03:49.122Z,101104.37
2019-05-29T23:06:19.472Z,101099.86
2019-05-29T23:08:47.940Z,101104.34
2019-05-29T23:11:16.504Z,101101.86
2019-05-29T23:13:45.031Z,101101.20
2019-05-29T23:16:13.508Z,101100.53
2019-05-29T23:18:41.971Z,101097.98
2019-05-29T23:21:10.552Z,101098.97
2019-05-29T23:23:39.061Z,101097.34
2019-05-29T23:26:07.586Z,101095.13
2019-05-29T23:28:36.096Z,101087.80
2019-05-29T23:31:05.104Z,101091.84
2019-05-29T23:33:33.649Z,101082.47
2019-05-29T23:36:03.249Z,101085.97
2019-05-29T23:38:31.814Z,101082.11
2019-05-29T23:41:01.548Z,101078.28
2019-05-29T23:43:32.630Z,101073.11
2019-05-29T23:46:02.414Z,101063.24
2019-05-29T23:48:32.919Z,101070.91
2019-05-29T23:51:03.839Z,101063.88
2019-05-29T23:53:32.332Z,101054.52
2019-05-29T23:56:01.838Z,101058.84
2019-05-29T23:58:30.474Z,101058.84
